createdAt,value
2022-10-05T00:02:59.495Z,81.58
2022-10-05T00:07:08.680Z,81.58
2022-10-05T00:11:14.206Z,81.31
2022-10-05T00:15:19.545Z,81.26
2022-10-05T00:19:27.867Z,81.02
2022-10-05T00:23:32.681Z,80.56
2022-10-05T00:27:37.580Z,80.36
2022-10-05T00:31:39.343Z,80.05
2022-10-05T00:35:41.125Z,79.76
2022-10-05T00:39:43.177Z,79.37
2022-10-05T00:44:15.419Z,78.27
2022-10-05T00:48:32.861Z,77.97
2022-10-05T00:52:55.898Z,78.30
2022-10-05T00:57:14.385Z,77.79
2022-10-05T01:01:41.075Z,77.60
2022-10-05T01:06:22.704Z,77.97
2022-10-05T01:10:40.215Z,77.71
2022-10-05T01:15:05.408Z,77.34
2022-10-05T01:19:07.029Z,77.58
2022-10-05T01:23:40.616Z,77.46
2022-10-05T01:27:57.273Z,77.73
2022-10-05T01:32:03.088Z,78.01
2022-10-05T01:36:13.693Z,77.70
2022-10-05T01:40:39.286Z,77.55
2022-10-05T01:44:58.213Z,76.87
2022-10-05T01:49:24.042Z,77.11
2022-10-05T01:53:57.924Z,77.10
2022-10-05T01:58:20.126Z,77.01
2022-10-05T02:02:24.208Z,77.89
2022-10-05T02:06:31.369Z,78.68
2022-10-05T02:10:37.087Z,79.80
2022-10-05T02:14:43.257Z,79.65
2022-10-05T02:19:00.831Z,81.24
2022-10-05T02:23:07.542Z,81.13
2022-10-05T02:27:14.876Z,81.03
2022-10-05T02:31:24.906Z,81.69
2022-10-05T02:35:27.359Z,81.71
2022-10-05T02:39:39.631Z,82.14
2022-10-05T02:43:47.403Z,81.97
2022-10-05T02:48:18.524Z,81.97
2022-10-05T02:52:26.455Z,82.46
2022-10-05T02:56:56.483Z,82.28
2022-10-05T03:01:28.117Z,83.23
2022-10-05T03:05:39.374Z,82.74
2022-10-05T03:10:01.474Z,82.51
2022-10-05T03:14:21.847Z,83.18
2022-10-05T03:18:30.885Z,83.12
2022-10-05T03:22:59.749Z,82.93
2022-10-05T03:27:17.465Z,83.17
2022-10-05T03:31:44.619Z,83.53
2022-10-05T03:36:10.663Z,83.03
2022-10-05T03:40:27.304Z,83.24
2022-10-05T03:45:14.933Z,83.12
2022-10-05T03:49:22.134Z,82.84
2022-10-05T03:53:31.239Z,82.60
2022-10-05T03:57:38.871Z,82.30
2022-10-05T04:01:51.228Z,82.28
2022-10-05T04:06:07.398Z,82.57
2022-10-05T04:10:17.647Z,82.23
2022-10-05T04:14:23.998Z,82.23
2022-10-05T04:18:32.350Z,82.10
2022-10-05T04:22:38.240Z,82.23
2022-10-05T04:26:51.120Z,82.20
2022-10-05T04:30:54.205Z,81.51
2022-10-05T04:35:15.042Z,81.49
2022-10-05T04:39:42.897Z,81.31
2022-10-05T04:43:50.874Z,80.93
2022-10-05T04:47:58.427Z,81.15
2022-10-05T04:52:23.444Z,80.19
2022-10-05T04:56:36.350Z,80.43
2022-10-05T05:00:47.217Z,80.44
2022-10-05T05:04:59.435Z,80.51
2022-10-05T05:09:16.605Z,80.06
2022-10-05T05:14:02.131Z,79.86
2022-10-05T05:18:25.564Z,79.97
2022-10-05T05:22:57.506Z,79.68
2022-10-05T05:27:14.717Z,79.79
2022-10-05T05:31:35.004Z,79.65
2022-10-05T05:36:05.275Z,79.34
2022-10-05T05:40:10.329Z,79.63
2022-10-05T05:44:12.548Z,79.30
2022-10-05T05:48:30.752Z,79.46
2022-10-05T05:52:43.099Z,79.42
2022-10-05T05:56:51.967Z,79.56
2022-10-05T06:01:01.503Z,79.35
2022-10-05T06:05:34.079Z,79.36
2022-10-05T06:09:41.437Z,79.57
2022-10-05T06:14:01.788Z,79.28
2022-10-05T06:18:14.158Z,79.29
2022-10-05T06:22:28.958Z,79.84
2022-10-05T06:26:36.663Z,79.87
2022-10-05T06:30:56.645Z,79.94
2022-10-05T06:35:31.089Z,79.87
2022-10-05T06:40:00.888Z,80.02
2022-10-05T06:44:12.271Z,79.97
2022-10-05T06:48:44.654Z,80.17
2022-10-05T06:53:12.591Z,79.98
2022-10-05T06:57:51.992Z,80.28
2022-10-05T07:02:13.927Z,79.95
2022-10-05T07:06:21.380Z,80.02
2022-10-05T07:10:40.662Z,80.36
2022-10-05T07:14:43.410Z,80.63
2022-10-05T07:18:49.948Z,80.43
2022-10-05T07:23:16.940Z,80.30
2022-10-05T07:27:30.458Z,80.36
2022-10-05T07:31:43.195Z,80.55
2022-10-05T07:36:14.422Z,80.44
2022-10-05T07:40:45.047Z,80.23
2022-10-05T07:45:07.486Z,80.03
2022-10-05T07:49:09.885Z,79.77
2022-10-05T07:53:44.284Z,79.91
2022-10-05T07:58:06.186Z,79.59
2022-10-05T08:02:44.561Z,80.01
2022-10-05T08:06:50.025Z,79.62
2022-10-05T08:10:51.998Z,79.64
2022-10-05T08:14:57.914Z,79.83
2022-10-05T08:19:10.525Z,80.26
2022-10-05T08:23:25.784Z,80.19
2022-10-05T08:28:09.955Z,79.68
2022-10-05T08:32:34.910Z,79.96
2022-10-05T08:36:44.971Z,80.10
2022-10-05T08:41:08.084Z,79.94
2022-10-05T08:45:48.818Z,79.76
2022-10-05T08:50:16.103Z,79.75
2022-10-05T08:54:43.578Z,79.42
2022-10-05T08:59:00.529Z,79.03
2022-10-05T09:03:23.632Z,79.06
2022-10-05T09:07:55.851Z,79.04
2022-10-05T09:12:35.382Z,78.08
2022-10-05T09:17:11.171Z,78.00
2022-10-05T09:21:56.598Z,77.73
2022-10-05T09:26:23.562Z,77.40
2022-10-05T09:31:04.247Z,76.75
2022-10-05T09:35:22.180Z,76.41
2022-10-05T09:39:41.064Z,76.01
2022-10-05T09:44:22.800Z,75.97
2022-10-05T09:48:42.813Z,75.55
2022-10-05T09:53:06.381Z,75.45
2022-10-05T09:57:19.616Z,75.46
2022-10-05T10:01:49.378Z,75.59
2022-10-05T10:06:18.085Z,75.46
2022-10-05T10:10:41.241Z,75.24
2022-10-05T10:14:42.846Z,74.66
2022-10-05T10:19:22.097Z,75.14
2022-10-05T10:23:32.685Z,74.75
2022-10-05T10:27:57.108Z,74.89
2022-10-05T10:31:59.085Z,74.58
2022-10-05T10:36:06.217Z,74.53
2022-10-05T10:40:20.803Z,74.86
2022-10-05T10:44:56.362Z,75.59
2022-10-05T10:49:30.200Z,75.73
2022-10-05T10:54:03.748Z,76.50
2022-10-05T10:58:40.009Z,77.05
2022-10-05T11:02:57.152Z,77.12
2022-10-05T11:07:26.205Z,77.83
2022-10-05T11:11:56.274Z,78.10
2022-10-05T11:16:53.847Z,77.92
2022-10-05T11:21:30.699Z,77.72
2022-10-05T11:25:44.478Z,78.17
2022-10-05T11:30:10.962Z,78.54
2022-10-05T11:34:18.465Z,78.53
2022-10-05T11:38:38.220Z,78.28
2022-10-05T11:43:16.406Z,78.18
2022-10-05T11:47:45.835Z,78.84
2022-10-05T11:52:13.022Z,77.82
2022-10-05T11:56:33.395Z,76.66
2022-10-05T12:00:40.468Z,76.27
2022-10-05T12:05:02.689Z,77.02
2022-10-05T12:09:18.874Z,77.37
2022-10-05T12:13:33.332Z,77.51
2022-10-05T12:17:51.352Z,77.20
2022-10-05T12:22:04.218Z,76.44
2022-10-05T12:26:16.446Z,76.01
2022-10-05T12:30:27.921Z,75.65
2022-10-05T12:35:01.863Z,75.40
2022-10-05T12:39:12.754Z,75.56
2022-10-05T12:43:57.171Z,75.04
2022-10-05T12:48:04.451Z,74.81
2022-10-05T12:52:21.329Z,75.08
2022-10-05T12:56:38.234Z,75.57
2022-10-05T13:00:50.038Z,75.23
2022-10-05T13:05:09.799Z,75.18
2022-10-05T13:09:16.882Z,75.20
2022-10-05T13:13:37.548Z,74.67
2022-10-05T13:17:43.206Z,74.44
2022-10-05T13:21:57.099Z,74.37
2022-10-05T13:26:08.029Z,74.33
2022-10-05T13:30:19.869Z,73.84
2022-10-05T13:34:37.585Z,73.44
2022-10-05T13:39:09.291Z,73.19
2022-10-05T13:43:22.398Z,73.13
2022-10-05T13:48:03.423Z,73.50
2022-10-05T13:52:08.836Z,73.37
2022-10-05T13:56:13.559Z,72.68
2022-10-05T14:00:18.795Z,73.27
2022-10-05T14:04:28.822Z,72.88
2022-10-05T14:08:34.179Z,72.11
2022-10-05T14:12:41.664Z,71.87
2022-10-05T14:17:01.012Z,71.02
2022-10-05T14:21:07.406Z,70.90
2022-10-05T14:25:09.037Z,71.41
2022-10-05T14:29:19.658Z,70.11
2022-10-05T14:33:29.908Z,70.75
2022-10-05T14:37:33.131Z,70.65
2022-10-05T14:41:37.693Z,69.99
2022-10-05T14:46:28.062Z,70.81
2022-10-05T14:50:31.814Z,71.24
2022-10-05T14:54:41.297Z,72.05
2022-10-05T14:59:08.960Z,71.93
2022-10-05T15:03:23.660Z,72.21
2022-10-05T15:07:30.870Z,72.38
2022-10-05T15:11:46.444Z,72.45
2022-10-05T15:15:57.559Z,72.33
2022-10-05T15:20:15.164Z,72.27
2022-10-05T15:24:25.353Z,72.22
2022-10-05T15:28:41.238Z,72.04
2022-10-05T15:32:51.921Z,72.25
2022-10-05T15:37:07.274Z,72.18
2022-10-05T15:41:15.127Z,72.17
2022-10-05T15:45:53.590Z,72.69
2022-10-05T15:50:04.827Z,72.71
2022-10-05T15:54:37.032Z,73.03
2022-10-05T15:58:46.958Z,73.12
2022-10-05T16:03:11.259Z,73.32
2022-10-05T16:07:38.631Z,73.19
2022-10-05T16:12:09.704Z,73.41
2022-10-05T16:16:20.978Z,73.44
2022-10-05T16:20:41.217Z,73.73
2022-10-05T16:25:07.863Z,74.07
2022-10-05T16:29:24.070Z,74.02
2022-10-05T16:33:54.565Z,74.34
2022-10-05T16:38:25.016Z,74.60
2022-10-05T16:42:47.537Z,74.77
2022-10-05T16:46:49.246Z,75.24
2022-10-05T16:50:55.246Z,75.22
2022-10-05T16:55:02.907Z,75.62
2022-10-05T16:59:36.879Z,75.69
2022-10-05T17:03:40.110Z,75.77
2022-10-05T17:07:56.888Z,75.74
2022-10-05T17:12:40.090Z,75.72
2022-10-05T17:16:54.578Z,76.05
2022-10-05T17:21:08.009Z,76.24
2022-10-05T17:25:22.428Z,76.61
2022-10-05T17:29:54.048Z,77.37
2022-10-05T17:34:17.943Z,77.73
2022-10-05T17:38:22.758Z,78.50
2022-10-05T17:42:30.593Z,79.94
2022-10-05T17:46:50.680Z,80.44
2022-10-05T17:51:11.192Z,80.86
2022-10-05T17:55:26.996Z,81.11
2022-10-05T17:59:46.774Z,80.74
2022-10-05T18:03:50.451Z,80.50
2022-10-05T18:08:15.762Z,80.40
2022-10-05T18:12:17.923Z,79.52
2022-10-05T18:16:56.850Z,80.10
2022-10-05T18:21:14.090Z,82.81
2022-10-05T18:25:43.764Z,82.37
2022-10-05T18:30:17.469Z,84.96
2022-10-05T18:34:31.346Z,88.06
2022-10-05T18:39:00.846Z,88.27
2022-10-05T18:43:38.160Z,90.64
2022-10-05T18:47:56.800Z,91.67
2022-10-05T18:52:08.359Z,93.58
2022-10-05T18:56:39.385Z,92.29
2022-10-05T19:00:56.701Z,93.20
2022-10-05T19:05:23.759Z,94.14
2022-10-05T19:10:01.839Z,95.03
2022-10-05T19:14:33.253Z,95.77
2022-10-05T19:19:00.169Z,96.20
2022-10-05T19:23:24.837Z,96.77
2022-10-05T19:27:34.010Z,96.40
2022-10-05T19:31:46.018Z,95.92
2022-10-05T19:36:02.655Z,95.24
2022-10-05T19:40:16.037Z,94.99
2022-10-05T19:44:49.869Z,94.56
2022-10-05T19:48:54.002Z,93.90
2022-10-05T19:53:08.379Z,93.82
2022-10-05T19:57:19.207Z,93.04
2022-10-05T20:01:34.084Z,92.03
2022-10-05T20:05:36.063Z,90.52
2022-10-05T20:10:17.580Z,89.42
2022-10-05T20:14:31.186Z,88.74
2022-10-05T20:18:57.259Z,85.18
2022-10-05T20:23:23.819Z,85.15
2022-10-05T20:27:57.733Z,86.20
2022-10-05T20:32:00.391Z,87.63
2022-10-05T20:36:03.795Z,87.99
2022-10-05T20:40:06.029Z,88.73
2022-10-05T20:44:07.702Z,88.71
2022-10-05T20:48:13.946Z,89.08
2022-10-05T20:52:15.912Z,89.79
2022-10-05T20:56:19.918Z,89.54
2022-10-05T21:00:21.575Z,89.18
2022-10-05T21:04:25.274Z,88.91
2022-10-05T21:08:27.283Z,89.30
2022-10-05T21:12:29.369Z,88.20
2022-10-05T21:16:31.075Z,88.17
2022-10-05T21:20:33.126Z,88.13
2022-10-05T21:24:36.770Z,87.84
2022-10-05T21:28:39.739Z,87.96
2022-10-05T21:32:44.422Z,88.43
2022-10-05T21:36:46.678Z,88.30
2022-10-05T21:40:48.355Z,88.75
2022-10-05T21:44:50.032Z,88.93
2022-10-05T21:48:51.824Z,89.16
2022-10-05T21:52:54.707Z,88.56
2022-10-05T21:56:57.812Z,87.46
2022-10-05T22:00:59.619Z,86.36
2022-10-05T22:05:01.766Z,84.67
2022-10-05T22:09:05.002Z,80.63
2022-10-05T22:13:06.877Z,80.54
2022-10-05T22:17:31.874Z,78.04
2022-10-05T22:21:38.317Z,76.97
2022-10-05T22:25:40.491Z,76.48
2022-10-05T22:29:42.634Z,76.61
2022-10-05T22:33:44.595Z,76.43
2022-10-05T22:37:46.337Z,76.33
2022-10-05T22:41:48.778Z,75.45
2022-10-05T22:45:51.054Z,76.16
2022-10-05T22:49:52.907Z,75.32
2022-10-05T22:53:54.549Z,74.84
2022-10-05T22:57:56.535Z,74.99
2022-10-05T23:01:58.616Z,74.28
2022-10-05T23:06:03.702Z,72.48
2022-10-05T23:10:06.767Z,71.94
2022-10-05T23:14:08.557Z,70.59
2022-10-05T23:18:11.451Z,70.37
2022-10-05T23:22:13.071Z,70.66
2022-10-05T23:26:16.164Z,71.51
2022-10-05T23:30:17.996Z,72.03
2022-10-05T23:34:19.794Z,72.47
2022-10-05T23:38:22.517Z,72.43
2022-10-05T23:42:24.331Z,72.17
2022-10-05T23:46:26.066Z,71.22
2022-10-05T23:50:27.867Z,70.77
2022-10-05T23:54:29.561Z,70.70
2022-10-05T23:58:31.793Z,70.72
